Time;durP1;ratioP1;P1;durP2;ratioP2;P2;SDS_P1;SDS_P2;PMS_P1;PMS_P2;Temp;Humidity;BMP_temperature;BMP_pressure;BME280_temperature;BME280_humidity;BME280_pressure;Samples;Min_cycle;Max_cycle;Signal;HPM_P1;HPM_P2
2022/02/08 00:00:40;;;;;;;10.67;4.13;;;77.40;2227.20;;;;;;5071599;28;20044;-70
2022/02/08 00:03:06;;;;;;;4.57;1.93;;;77.40;2227.20;;;;;;5071369;28;20155;-70
2022/02/08 00:05:32;;;;;;;7.77;2.70;;;77.40;2227.20;;;;;;5071658;28;20370;-70
2022/02/08 00:07:58;;;;;;;7.47;2.20;;;77.40;2227.20;;;;;;5055005;28;20123;-69
2022/02/08 00:10:27;;;;;;;6.53;2.80;;;77.40;2227.20;;;;;;5071584;28;20499;-70
2022/02/08 00:12:53;;;;;;;10.43;3.50;;;77.40;2227.20;;;;;;5071593;28;20102;-69
2022/02/08 00:15:19;;;;;;;10.07;3.43;;;77.40;2227.20;;;;;;5071527;28;20027;-70
2022/02/08 00:17:45;;;;;;;7.93;2.63;;;77.40;2227.20;;;;;;5071564;28;20032;-73
2022/02/08 00:20:12;;;;;;;7.97;2.57;;;77.30;2227.20;;;;;;5071430;28;20159;-70
2022/02/08 00:22:38;;;;;;;6.90;2.60;;;77.30;2227.20;;;;;;5071379;28;20044;-70
2022/02/08 00:25:06;;;;;;;7.23;2.30;;;77.30;2227.20;;;;;;5072400;28;20031;-69
2022/02/08 00:27:32;;;;;;;8.47;2.50;;;77.30;2227.20;;;;;;5093589;28;20035;-69
2022/02/08 00:29:58;;;;;;;9.67;2.80;;;77.30;2227.20;;;;;;5093555;28;20016;-70
2022/02/08 00:32:24;;;;;;;11.97;2.70;;;77.30;2227.20;;;;;;5093588;28;20487;-70
2022/02/08 00:34:50;;;;;;;9.67;2.77;;;77.40;2227.20;;;;;;5093565;28;20115;-70
2022/02/08 00:37:16;;;;;;;9.20;2.97;;;77.30;2227.20;;;;;;5093507;28;20020;-70
2022/02/08 00:39:43;;;;;;;10.33;2.43;;;77.20;2227.20;;;;;;5093474;28;20438;-69
2022/02/08 00:42:11;;;;;;;9.80;2.90;;;77.20;2227.20;;;;;;5095192;28;20056;-69
2022/02/08 00:44:53;;;;;;;11.10;3.13;;;77.30;2227.20;;;;;;5097743;28;20017;-73
2022/02/08 00:47:33;;;;;;;8.40;2.50;;;;;;;;;;5096375;28;20476;-69
2022/02/08 00:50:06;;;;;;;10.37;2.33;;;;;;;;;;5097930;28;20108;-70
2022/02/08 00:52:34;;;;;;;13.63;2.65;;;77.30;2227.20;;;;;;5097612;28;20031;-61
2022/02/08 00:55:00;;;;;;;10.47;2.60;;;77.30;2227.20;;;;;;5097796;28;20549;-69
2022/02/08 00:57:26;;;;;;;8.93;2.63;;;77.20;2227.20;;;;;;5097429;28;20031;-69
2022/02/08 00:59:53;;;;;;;8.00;2.40;;;77.20;2227.20;;;;;;5097140;28;20043;-70
2022/02/08 01:02:19;;;;;;;7.60;2.40;;;77.20;2227.20;;;;;;5097318;28;20032;-69
2022/02/08 01:04:55;;;;;;;8.60;2.27;;;77.20;2227.20;;;;;;5097274;28;20081;-70
2022/02/08 01:07:21;;;;;;;10.73;2.63;;;77.10;2227.20;;;;;;5097242;28;20059;-69
2022/02/08 01:09:59;;;;;;;9.83;2.70;;;77.00;2227.20;;;;;;5097516;28;20115;-68
2022/02/08 01:12:28;;;;;;;9.47;2.67;;;77.00;2227.20;;;;;;5097241;28;20020;-69
2022/02/08 01:14:54;;;;;;;9.20;2.77;;;77.00;2227.20;;;;;;5097423;28;20035;-69
2022/02/08 01:17:23;;;;;;;11.70;3.27;;;;;;;;;;5097047;28;20025;-69
2022/02/08 01:20:04;;;;;;;9.70;2.83;;;;;;;;;;5097059;28;20031;-69
2022/02/08 01:22:30;;;;;;;7.00;2.13;;;77.10;2227.20;;;;;;5096777;28;20043;-69
2022/02/08 01:24:56;;;;;;;10.73;2.50;;;76.90;2227.20;;;;;;5095623;28;20447;-61
2022/02/08 01:27:27;;;;;;;12.63;2.83;;;76.90;2227.20;;;;;;5096890;28;20047;-61
2022/02/08 01:29:57;;;;;;;7.37;1.80;;;76.90;2227.20;;;;;;5096745;28;20368;-61
2022/02/08 01:42:46;;;;;;;7.27;2.20;;;76.90;2227.20;;;;;;5095225;28;20036;-71
2022/02/08 01:47:48;;;;;;;9.33;2.50;;;76.90;2227.20;;;;;;5096445;28;20169;-71
2022/02/08 01:50:16;;;;;;;11.57;2.33;;;76.80;2227.20;;;;;;5096775;28;20024;-71
2022/02/08 01:52:44;;;;;;;7.13;2.10;;;76.80;2227.20;;;;;;5096315;28;20035;-69
2022/02/08 01:55:12;;;;;;;10.77;2.57;;;76.90;2227.20;;;;;;5096660;28;20024;-72
2022/02/08 01:57:39;;;;;;;9.93;2.50;;;76.80;2227.20;;;;;;5096333;28;20012;-71
2022/02/08 02:00:07;;;;;;;7.33;2.30;;;76.80;2227.20;;;;;;5096048;28;20085;-61
2022/02/08 02:02:33;;;;;;;6.70;2.33;;;76.80;2227.20;;;;;;5094823;28;20050;-73
2022/02/08 02:04:59;;;;;;;9.73;2.80;;;76.90;2227.20;;;;;;5094872;28;20074;-71
2022/02/08 02:07:25;;;;;;;10.03;2.73;;;76.80;2227.20;;;;;;5096156;28;20027;-60
2022/02/08 02:09:51;;;;;;;8.23;2.57;;;76.80;2227.20;;;;;;5094825;28;20107;-64
2022/02/08 02:12:17;;;;;;;11.67;2.70;;;76.80;2227.20;;;;;;5096036;28;20103;-61
2022/02/08 02:14:44;;;;;;;8.57;2.40;;;76.80;2227.20;;;;;;5095552;28;20024;-60
2022/02/08 02:17:11;;;;;;;18.93;2.83;;;76.80;2227.20;;;;;;5095227;28;20031;-60
2022/02/08 02:19:39;;;;;;;12.13;2.87;;;52.10;2227.20;;;;;;5095199;28;20353;-60
2022/02/08 02:22:07;;;;;;;10.70;2.57;;;76.80;2227.20;;;;;;5095167;28;20028;-60
2022/02/08 02:24:36;;;;;;;5.60;2.50;;;52.10;2227.20;;;;;;5095005;28;20051;-60
2022/02/08 02:27:04;;;;;;;10.77;2.57;;;52.10;2227.20;;;;;;5095118;28;20058;-61
2022/02/08 02:29:31;;;;;;;6.80;2.10;;;52.10;2227.20;;;;;;5095266;28;20482;-61
2022/02/08 02:31:58;;;;;;;9.40;2.50;;;52.10;2227.20;;;;;;5095099;28;20023;-61
2022/02/08 02:34:25;;;;;;;7.40;2.53;;;52.10;2227.20;;;;;;5095539;28;20141;-61
2022/02/08 02:36:53;;;;;;;9.83;2.90;;;52.10;2227.20;;;;;;5095533;28;20039;-60
2022/02/08 02:39:25;;;;;;;10.07;3.00;;;52.00;2227.20;;;;;;5095526;28;20028;-60
2022/02/08 02:41:52;;;;;;;11.23;2.17;;;52.00;2227.20;;;;;;5095692;28;20478;-61
2022/02/08 02:44:22;;;;;;;10.13;2.20;;;52.00;2227.20;;;;;;5095966;28;20472;-60
2022/02/08 02:46:49;;;;;;;14.40;2.60;;;51.90;2227.20;;;;;;5095403;28;20384;-60
2022/02/08 02:49:15;;;;;;;9.73;2.30;;;51.90;2227.20;;;;;;5095605;28;20024;-60
2022/02/08 02:51:41;;;;;;;14.90;2.60;;;51.90;2227.20;;;;;;5095554;28;20034;-60
2022/02/08 02:54:17;;;;;;;7.53;2.33;;;51.90;2227.20;;;;;;5095540;28;20063;-60
2022/02/08 02:56:45;;;;;;;10.23;2.90;;;52.00;2227.20;;;;;;5095156;28;20027;-61
2022/02/08 02:59:11;;;;;;;9.27;2.57;;;51.90;2227.20;;;;;;5094944;28;20097;-60
2022/02/08 03:01:54;;;;;;;10.23;2.17;;;51.90;2227.20;;;;;;5095292;28;20508;-60
2022/02/08 03:04:50;;;;;;;8.85;2.45;;;52.00;2227.20;;;;;;5094468;28;20028;-60
2022/02/08 03:20:49;;;;;;;9.83;2.43;;;51.90;2227.20;;;;;;5094711;28;20460;-60
2022/02/08 03:23:16;;;;;;;11.93;2.00;;;51.90;2227.20;;;;;;5094587;28;20046;-66
2022/02/08 03:25:42;;;;;;;6.63;1.90;;;51.90;2227.20;;;;;;5094601;28;20055;-60
2022/02/08 03:28:08;;;;;;;9.57;2.03;;;51.90;2227.20;;;;;;5094629;28;20540;-60
2022/02/08 03:30:34;;;;;;;9.03;2.50;;;51.90;2227.20;;;;;;5094471;28;20078;-60
2022/02/08 03:33:00;;;;;;;10.07;2.13;;;51.90;2227.20;;;;;;5094187;28;20039;-61
2022/02/08 03:35:26;;;;;;;6.70;2.00;;;51.90;2227.20;;;;;;5094216;28;20024;-60
2022/02/08 03:37:58;;;;;;;17.97;2.70;;;51.90;2227.20;;;;;;5094427;28;20032;-60
2022/02/08 03:40:57;;;;;;;10.87;2.57;;;51.90;2227.20;;;;;;5094803;28;20028;-59
2022/02/08 03:45:47;;;;;;;10.27;2.10;;;51.80;2227.20;;;;;;5094325;28;20020;-60
2022/02/08 03:48:16;;;;;;;12.87;2.53;;;51.90;2227.20;;;;;;5094177;28;20110;-60
2022/02/08 03:50:46;;;;;;;10.33;2.17;;;51.80;2227.20;;;;;;5094181;28;20035;-60
2022/02/08 03:53:12;;;;;;;6.53;2.30;;;51.90;2227.20;;;;;;5094110;28;20031;-60
2022/02/08 03:55:38;;;;;;;6.73;2.07;;;51.90;2227.20;;;;;;5094161;28;20456;-60
2022/02/08 03:58:04;;;;;;;7.57;2.00;;;51.90;2227.20;;;;;;5094277;28;20037;-60
2022/02/08 04:00:37;;;;;;;7.57;2.67;;;51.80;2227.20;;;;;;5093851;28;20044;-60
2022/02/08 04:03:03;;;;;;;6.30;1.60;;;51.80;2227.20;;;;;;5094045;28;20077;-60
2022/02/08 04:05:40;;;;;;;7.40;2.40;;;51.80;2227.20;;;;;;5094157;28;20439;-60
2022/02/08 04:08:09;;;;;;;7.33;1.70;;;51.80;2227.20;;;;;;5093972;28;20073;-60
2022/02/08 04:10:35;;;;;;;7.00;2.20;;;51.80;2227.20;;;;;;5093379;28;20027;-70
2022/02/08 04:43:00;;;;;;;9.50;2.17;;;51.60;2227.20;;;;;;5091739;28;20047;-70
2022/02/08 04:45:46;;;;;;;12.18;2.78;;;51.50;2227.20;;;;;;5073095;28;20032;-72
2022/02/08 04:48:44;;;;;;;8.03;2.10;;;51.50;2227.20;;;;;;5072988;28;20029;-71
2022/02/08 04:51:16;;;;;;;13.80;6.10;;;51.50;2227.20;;;;;;5072820;28;20021;-71
2022/02/08 04:53:51;;;;;;;18.33;8.20;;;51.50;2227.20;;;;;;5072921;28;20039;-71
2022/02/08 04:56:31;;;;;;;9.93;4.03;;;51.50;2227.20;;;;;;5073023;28;20029;-70
2022/02/08 04:59:17;;;;;;;12.33;2.43;;;51.50;2227.20;;;;;;5072740;28;20044;-70
2022/02/08 05:47:42;;;;;;;43.70;12.70;;;51.40;2227.20;;;;;;5093544;28;20032;-68
2022/02/08 05:50:58;;;;;;;33.93;10.83;;;51.40;2227.20;;;;;;5096827;28;20073;-66
2022/02/08 05:55:26;;;;;;;29.67;8.73;;;51.40;2227.20;;;;;;5098489;28;20028;-66
2022/02/08 05:57:53;;;;;;;25.87;7.60;;;51.40;2227.20;;;;;;5103754;28;20475;-65
2022/02/08 06:00:22;;;;;;;29.67;9.47;;;51.40;2227.20;;;;;;5099237;28;20067;-69
2022/02/08 06:02:49;;;;;;;45.90;16.53;;;51.40;2227.20;;;;;;5095256;28;20024;-69
2022/02/08 06:05:18;;;;;;;44.50;16.93;;;51.40;2227.20;;;;;;5095436;28;20024;-71
2022/02/08 06:07:44;;;;;;;53.70;20.17;;;51.40;2227.20;;;;;;5098388;28;20119;-71
2022/02/08 06:10:10;;;;;;;24.07;9.50;;;51.40;2227.20;;;;;;5097463;28;20099;-68
2022/02/08 06:12:48;;;;;;;28.80;10.00;;;51.50;2227.20;;;;;;5109221;28;20546;-68
2022/02/08 06:15:17;;;;;;;33.43;11.27;;;51.50;2227.20;;;;;;5093776;28;20024;-71
2022/02/08 06:17:43;;;;;;;49.97;23.27;;;51.50;2227.20;;;;;;5095688;28;20012;-71
2022/02/08 06:20:10;;;;;;;30.23;15.40;;;51.50;2227.20;;;;;;5094929;28;20076;-70
2022/02/08 06:22:37;;;;;;;29.23;15.57;;;51.50;2227.20;;;;;;5095373;28;20422;-69
2022/02/08 06:25:05;;;;;;;107.57;57.97;;;51.60;2227.20;;;;;;5095487;28;20106;-71
2022/02/08 06:27:31;;;;;;;85.30;43.53;;;51.60;2227.20;;;;;;5093617;28;20020;-70
2022/02/08 06:29:58;;;;;;;99.20;47.90;;;51.60;2227.20;;;;;;5099357;28;20357;-68
2022/02/08 06:32:26;;;;;;;103.70;41.97;;;51.70;2227.20;;;;;;5093003;28;20024;-68
2022/02/08 06:34:54;;;;;;;125.77;51.70;;;51.70;2227.20;;;;;;5093841;28;20044;-69
2022/02/08 06:37:21;;;;;;;127.67;50.67;;;51.80;2227.20;;;;;;5097162;28;20028;-70
2022/02/08 06:39:47;;;;;;;124.33;53.63;;;51.80;2227.20;;;;;;5098307;28;20038;-70
2022/02/08 06:42:13;;;;;;;86.50;37.47;;;51.80;2227.20;;;;;;5104282;28;20472;-70
2022/02/08 06:44:39;;;;;;;46.70;19.43;;;51.90;2227.20;;;;;;5108885;28;20046;-71
2022/02/08 06:47:06;;;;;;;35.03;14.70;;;51.90;2227.20;;;;;;5105410;27;20031;-70
2022/02/08 06:49:32;;;;;;;41.27;16.43;;;52.00;2227.20;;;;;;5093822;28;20056;-70
2022/02/08 06:51:58;;;;;;;28.13;10.93;;;52.10;2227.20;;;;;;5096360;28;20028;-70
2022/02/08 06:54:23;;;;;;;26.17;11.93;;;52.10;2227.20;;;;;;5094889;28;20035;-70
2022/02/08 06:56:49;;;;;;;26.90;12.00;;;76.80;2227.20;;;;;;5094143;28;20491;-70
2022/02/08 06:59:18;;;;;;;35.67;14.23;;;76.80;2227.20;;;;;;5098643;28;20043;-70
2022/02/08 07:01:45;;;;;;;26.67;8.90;;;76.80;2227.20;;;;;;5094510;28;20115;-70
2022/02/08 07:04:15;;;;;;;16.60;6.33;;;76.90;2227.20;;;;;;5092935;28;20020;-69
2022/02/08 07:06:43;;;;;;;21.57;7.27;;;77.00;2227.20;;;;;;5094768;28;20058;-69
2022/02/08 07:09:10;;;;;;;26.37;8.67;;;77.00;2227.20;;;;;;5094608;28;20532;-68
2022/02/08 07:11:36;;;;;;;30.53;11.23;;;77.10;2227.20;;;;;;5093514;28;20028;-68
2022/02/08 07:14:04;;;;;;;30.13;11.17;;;77.10;2227.20;;;;;;5093617;28;20024;-67
2022/02/08 07:16:30;;;;;;;38.93;14.73;;;77.10;2227.20;;;;;;5092896;28;20032;-61
2022/02/08 07:18:56;;;;;;;25.10;9.13;;;77.10;2227.20;;;;;;5094317;28;20024;-62
2022/02/08 07:21:22;;;;;;;26.87;7.50;;;77.20;2227.20;;;;;;5092804;28;20051;-62
2022/02/08 07:23:48;;;;;;;17.20;5.20;;;77.20;2227.20;;;;;;5096355;28;20039;-68
2022/02/08 07:26:14;;;;;;;24.27;10.53;;;77.20;2227.20;;;;;;5095264;28;20037;-70
2022/02/08 07:28:42;;;;;;;28.50;14.57;;;77.30;2227.20;;;;;;5094076;28;20438;-69
2022/02/08 07:31:16;;;;;;;25.53;10.00;;;77.30;2227.20;;;;;;5093960;28;20109;-69
2022/02/08 07:36:26;;;;;;;66.10;34.07;;;77.40;2227.20;;;;;;5093892;28;20028;-67
2022/02/08 07:38:53;;;;;;;30.57;12.67;;;77.50;2227.20;;;;;;5093942;28;20020;-66
2022/02/08 07:41:42;;;;;;;92.03;39.53;;;77.50;2227.20;;;;;;5093195;28;20031;-66
2022/02/08 07:44:10;;;;;;;144.70;57.33;;;77.50;2227.20;;;;;;5093098;28;20563;-66
2022/02/08 07:46:36;;;;;;;79.83;31.27;;;77.60;2227.20;;;;;;5093101;28;20541;-67
2022/02/08 07:49:04;;;;;;;145.80;61.13;;;77.60;2227.20;;;;;;5093416;28;20051;-67
2022/02/08 07:51:32;;;;;;;95.07;43.57;;;77.70;2227.20;;;;;;5091887;28;20024;-66
2022/02/08 07:53:59;;;;;;;60.63;31.03;;;102.40;2227.20;;;;;;5112828;28;20028;-66
2022/02/08 07:56:25;;;;;;;52.40;26.37;;;102.40;2227.20;;;;;;5113612;28;20066;-66
2022/02/08 07:58:51;;;;;;;129.33;62.90;;;102.50;2227.20;;;;;;5113080;28;20043;-67
2022/02/08 08:01:17;;;;;;;59.63;28.63;;;102.50;2227.20;;;;;;5113664;28;20098;-67
2022/02/08 08:03:43;;;;;;;27.90;11.43;;;102.60;2227.20;;;;;;5113272;28;20038;-66
2022/02/08 08:06:10;;;;;;;54.93;28.13;;;102.60;2227.20;;;;;;5112174;28;20475;-67
2022/02/08 08:08:37;;;;;;;43.20;20.37;;;102.80;2227.20;;;;;;5113777;28;20034;-66
2022/02/08 08:11:07;;;;;;;21.20;8.63;;;102.90;2227.20;;;;;;5113575;28;20375;-67
2022/02/08 08:13:39;;;;;;;33.43;14.60;;;102.90;2227.20;;;;;;5113411;28;20054;-66
2022/02/08 08:16:16;;;;;;;13.20;4.60;;;103.00;2227.20;;;;;;5113282;28;20016;-68
2022/02/08 08:18:58;;;;;;;41.17;19.37;;;103.10;2227.20;;;;;;5085844;28;20486;-67
2022/02/08 08:21:25;;;;;;;21.13;7.43;;;103.20;2227.20;;;;;;5072693;28;20095;-67
2022/02/08 08:23:52;;;;;;;23.80;10.50;;;103.30;2227.20;;;;;;5072601;28;20044;-67
2022/02/08 08:26:17;;;;;;;36.40;17.35;;;128.00;2252.80;;;;;;5072888;28;20023;-67
2022/02/08 08:28:43;;;;;;;30.13;9.43;;;128.10;2252.80;;;;;;5072917;28;20021;-67
2022/02/08 08:31:09;;;;;;;17.33;6.45;;;128.20;2252.80;;;;;;5072814;28;20033;-66
2022/02/08 08:33:35;;;;;;;12.50;3.65;;;128.40;2252.80;;;;;;5072719;28;20564;-66
2022/02/08 08:36:01;;;;;;;13.63;4.47;;;128.40;2252.80;;;;;;5072497;28;20457;-65
2022/02/08 08:38:30;;;;;;;15.35;5.82;;;128.50;2252.80;;;;;;5072769;28;20078;-67
2022/02/08 08:49:25;;;;;;;23.10;9.40;;;153.90;2252.80;;;;;;5098335;28;20085;-66
2022/02/08 08:51:53;;;;;;;39.90;20.00;;;154.20;2252.80;;;;;;5102458;28;20059;-67
2022/02/08 08:54:20;;;;;;;40.58;27.27;;;154.40;2252.80;;;;;;5092683;28;20026;-66
2022/02/08 08:56:49;;;;;;;22.00;9.02;;;179.20;2227.20;;;;;;5106314;28;20507;-69
2022/02/08 08:59:16;;;;;;;34.03;9.45;;;179.40;2176.00;;;;;;5108745;28;20048;-67
2022/02/08 09:01:43;;;;;;;24.08;8.70;;;179.60;2124.80;;;;;;5092505;28;20044;-67
2022/02/08 09:04:09;;;;;;;17.60;6.30;;;179.80;2073.60;;;;;;5095961;28;20403;-67
2022/02/08 09:06:36;;;;;;;21.60;7.10;;;179.80;2048.00;;;;;;5096391;28;20031;-67
2022/02/08 09:09:08;;;;;;;21.27;8.68;;;179.90;2022.40;;;;;;5096569;28;20032;-67
2022/02/08 09:11:49;;;;;;;21.63;11.43;;;204.80;2022.40;;;;;;5096472;28;20487;-70
2022/02/08 09:14:15;;;;;;;19.30;8.95;;;205.30;1894.40;;;;;;5096098;28;20039;-67
2022/02/08 09:17:35;;;;;;;26.17;14.88;;;332.90;1510.40;;;;;;5096384;28;20102;-69
2022/02/08 09:20:04;;;;;;;15.38;11.43;;;435.40;1126.40;;;;;;5094168;28;20057;-69
2022/02/08 09:22:48;;;;;;;10.75;5.93;;;486.80;972.80;;;;;;5096276;28;20040;-68
2022/02/08 09:30:49;;;;;;;13.05;6.40;;;409.90;1100.80;;;;;;5096556;28;20039;-69
2022/02/08 09:33:15;;;;;;;11.38;4.65;;;358.90;1280.00;;;;;;5096104;28;20039;-69
2022/02/08 09:35:42;;;;;;;6.72;3.25;;;333.10;1382.40;;;;;;5096021;28;20407;-71
2022/02/08 09:38:08;;;;;;;10.02;4.00;;;332.90;1356.80;;;;;;5096601;28;20036;-70
2022/02/08 09:40:34;;;;;;;11.23;3.45;;;333.20;1356.80;;;;;;5096393;28;20026;-68
2022/02/08 09:43:03;;;;;;;10.38;4.60;;;333.60;1356.80;;;;;;5096101;28;20040;-67
2022/02/08 09:45:32;;;;;;;39.92;25.90;;;359.30;1254.40;;;;;;5094681;28;20034;-69
2022/02/08 09:48:11;;;;;;;46.05;24.88;;;410.50;1203.20;;;;;;5092415;28;20034;-71
2022/02/08 09:50:39;;;;;;;18.60;11.00;;;461.60;1049.60;;;;;;5094896;28;20031;-69
2022/02/08 09:53:09;;;;;;;11.50;5.93;;;537.60;972.80;;;;;;5094733;28;20069;-70
2022/02/08 09:55:39;;;;;;;27.95;15.60;;;614.40;844.80;;;;;;5095288;28;20030;-69
2022/02/08 09:58:07;;;;;;;38.65;19.83;;;614.70;793.60;;;;;;5092813;28;20093;-67
2022/02/08 10:00:34;;;;;;;72.93;36.20;;;;;;;;;;5095815;28;20096;-68
2022/02/08 10:03:05;;;;;;;22.95;12.02;;;640.70;716.80;;;;;;5095093;28;20028;-69
2022/02/08 10:05:40;;;;;;;39.90;21.55;;;614.90;742.40;;;;;;5094127;28;20028;-67
2022/02/08 10:08:07;;;;;;;89.53;40.97;;;615.20;742.40;;;;;;5094798;28;20093;-69
2022/02/08 10:10:32;;;;;;;12.77;5.28;;;640.00;716.80;;;;;;5094418;28;20028;-70
2022/02/08 10:13:13;;;;;;;10.70;3.90;;;;;;;;;;5095178;28;20020;-67
2022/02/08 10:23:55;;;;;;;8.85;3.35;;;;;;;;;;5095547;28;20119;-70
2022/02/08 10:26:31;;;;;;;7.15;2.88;;;;;;;;;;5094871;28;20020;-69
2022/02/08 10:29:01;;;;;;;9.73;2.47;;;691.60;691.20;;;;;;5094672;28;20538;-69
2022/02/08 10:31:46;;;;;;;8.38;3.53;;;640.60;742.40;;;;;;5094871;28;20031;-68
2022/02/08 10:39:57;;;;;;;16.13;11.48;;;563.80;1100.80;;;;;;5096932;28;20043;-68
2022/02/08 10:42:23;;;;;;;10.02;3.58;;;;;;;;;;5106857;28;20023;-67
2022/02/08 10:44:49;;;;;;;12.55;4.82;;;;;;;;;;5104827;28;20027;-69
2022/02/08 10:47:15;;;;;;;18.95;6.43;;;435.30;1254.40;;;;;;5100283;28;20020;-66
2022/02/08 10:49:42;;;;;;;11.93;4.43;;;435.40;1075.20;;;;;;5094895;28;20053;-68
2022/02/08 10:52:10;;;;;;;12.60;3.92;;;461.30;998.40;;;;;;5094209;28;20024;-68
2022/02/08 10:54:42;;;;;;;11.40;3.80;;;436.10;998.40;;;;;;5094963;28;20039;-68
2022/02/08 10:57:15;;;;;;;18.15;7.25;;;435.50;1024.00;;;;;;5093848;28;20066;-67
2022/02/08 10:59:53;;;;;;;48.22;19.27;;;409.90;1075.20;;;;;;5094292;28;20493;-66
2022/02/08 11:02:29;;;;;;;51.55;28.98;;;410.30;1049.60;;;;;;5109472;28;20128;-67
2022/02/08 11:10:58;;;;;;;18.70;7.15;;;359.00;1152.00;;;;;;5114793;28;20028;-67
2022/02/08 11:26:33;;;;;;;48.33;15.50;;;435.70;1024.00;;;;;;5093856;28;20097;-68
2022/02/08 11:32:07;;;;;;;70.75;22.23;;;409.90;1100.80;;;;;;5093616;28;20028;-68
2022/02/08 11:51:36;;;;;;;78.72;28.95;;;333.70;1280.00;;;;;;5094249;28;20115;-68
2022/02/08 12:12:31;;;;;;;10.82;3.63;;;282.10;1408.00;;;;;;5091316;28;20349;-67
2022/02/08 12:35:11;;;;;;;10.40;4.55;;;282.50;1408.00;;;;;;5089051;28;20051;-66
2022/02/08 12:52:16;;;;;;;15.50;3.80;;;333.50;1280.00;;;;;;5092481;28;20030;-66
2022/02/08 12:57:05;;;;;;;13.45;3.15;;;282.10;1433.60;;;;;;5092161;28;20043;-65
2022/02/08 14:07:38;;;;;;;20.42;7.88;;;563.60;896.00;;;;;;5094668;28;20423;-73
2022/02/08 14:10:23;;;;;;;13.77;8.55;;;538.10;896.00;;;;;;5094365;28;20028;-70
2022/02/08 14:23:50;;;;;;;33.75;18.27;;;564.00;793.60;;;;;;5094871;28;20050;-70
2022/02/08 15:09:34;;;;;;;26.52;13.02;;;256.90;1433.60;;;;;;5094879;28;20024;-67
2022/02/08 15:14:28;;;;;;;24.52;10.85;;;256.80;1459.20;;;;;;5095048;28;20020;-68
2022/02/08 15:16:54;;;;;;;23.83;10.77;;;256.80;1459.20;;;;;;5094630;28;20030;-68
2022/02/08 15:19:20;;;;;;;87.00;19.00;;;256.80;1459.20;;;;;;5094650;28;20028;-67
2022/02/08 15:21:46;;;;;;;25.67;12.45;;;256.70;1459.20;;;;;;5094281;28;20073;-67
2022/02/08 15:24:13;;;;;;;24.80;11.57;;;256.60;1484.80;;;;;;5094454;28;20028;-67
2022/02/08 15:26:46;;;;;;;21.17;9.77;;;256.60;1459.20;;;;;;5094580;28;20024;-68
2022/02/08 15:29:13;;;;;;;24.75;11.95;;;256.50;1484.80;;;;;;5094452;28;20123;-69
2022/02/08 15:31:39;;;;;;;29.23;12.95;;;;;;;;;;5094093;28;20077;-69
2022/02/08 15:34:05;;;;;;;25.35;11.15;;;256.20;1510.40;;;;;;5094314;28;20024;-67
2022/02/08 15:36:31;;;;;;;31.75;11.80;;;256.10;1510.40;;;;;;5094306;28;20499;-68
2022/02/08 15:39:05;;;;;;;26.73;10.70;;;256.00;1536.00;;;;;;5094234;28;20107;-68
2022/02/08 15:41:34;;;;;;;31.25;11.20;;;231.20;1561.60;;;;;;5092799;28;20032;-68
2022/02/08 15:44:00;;;;;;;30.90;12.80;;;231.00;1638.40;;;;;;5093890;28;20039;-69
2022/02/08 15:46:26;;;;;;;32.15;13.73;;;230.90;1612.80;;;;;;5094131;28;20024;-68
2022/02/08 15:48:54;;;;;;;32.97;11.43;;;230.80;1638.40;;;;;;5094094;28;20400;-69
2022/02/08 15:51:32;;;;;;;30.48;10.10;;;230.70;1612.80;;;;;;5093828;28;20024;-69
2022/02/08 16:05:22;;;;;;;25.30;11.45;;;205.70;1638.40;;;;;;5031639;28;20083;-69
2022/02/08 16:08:02;;;;;;;30.65;14.18;;;205.60;1638.40;;;;;;5031429;28;20072;-68
2022/02/08 16:10:50;;;;;;;49.78;21.95;;;205.50;1664.00;;;;;;5031569;28;20029;-69
2022/02/08 16:13:20;;;;;;;37.63;17.17;;;205.50;1664.00;;;;;;5030845;28;20576;-68
2022/02/08 16:18:32;;;;;;;52.08;21.27;;;205.50;1664.00;;;;;;5031482;28;20466;-69
2022/02/08 16:21:26;;;;;;;67.07;26.52;;;205.50;1664.00;;;;;;5031378;28;20033;-69
2022/02/08 16:29:52;;;;;;;48.92;22.58;;;205.40;1689.60;;;;;;5031353;28;20045;-69
2022/02/08 16:46:16;;;;;;;58.70;30.20;;;205.60;1664.00;;;;;;5093156;28;20032;-69
2022/02/08 16:49:09;;;;;;;77.50;35.13;;;205.60;1664.00;;;;;;5093480;28;20210;-68
2022/02/08 16:54:29;;;;;;;76.50;39.45;;;205.60;1689.60;;;;;;5093040;28;20383;-70
2022/02/08 16:57:11;;;;;;;74.20;37.28;;;205.60;1689.60;;;;;;5093488;28;20047;-69
2022/02/08 16:59:39;;;;;;;113.47;53.10;;;205.60;1689.60;;;;;;5093042;28;20059;-69
2022/02/08 17:02:07;;;;;;;181.57;92.28;;;205.60;1715.20;;;;;;5092172;28;20426;-69
2022/02/08 17:04:35;;;;;;;88.78;46.17;;;205.50;1740.80;;;;;;5091463;28;20083;-70
2022/02/08 17:07:01;;;;;;;85.45;40.83;;;205.30;1817.60;;;;;;5091796;28;20026;-71
2022/02/08 17:18:01;;;;;;;59.55;30.83;;;205.00;2124.80;;;;;;5092336;28;20131;-69
2022/02/08 17:45:16;;;;;;;;;;;204.90;1868.80;;;;;;5096302;28;20046;-71
2022/02/08 17:47:42;;;;;;;30.33;14.02;;;204.80;1894.40;;;;;;5095944;28;19908;-69
2022/02/08 17:50:14;;;;;;;33.40;17.25;;;204.80;1894.40;;;;;;5095684;28;20491;-71
2022/02/08 17:52:42;;;;;;;39.60;15.70;;;180.10;1894.40;;;;;;5094630;28;20055;-70
2022/02/08 17:55:09;;;;;;;28.98;14.63;;;180.10;1894.40;;;;;;5092368;28;20031;-70
2022/02/08 17:57:35;;;;;;;30.33;16.08;;;180.10;1868.80;;;;;;5095742;28;20020;-70
2022/02/08 18:00:02;;;;;;;28.23;12.32;;;180.10;1868.80;;;;;;5095848;28;20505;-70
2022/02/08 18:02:28;;;;;;;31.45;14.80;;;204.80;1843.20;;;;;;5096055;28;20024;-71
2022/02/08 18:04:56;;;;;;;37.97;15.07;;;204.90;1817.60;;;;;;5095862;28;20032;-71
2022/02/08 18:07:24;;;;;;;39.13;16.20;;;204.90;1817.60;;;;;;5095969;28;20031;-72
2022/02/08 18:09:51;;;;;;;33.83;17.30;;;205.00;1817.60;;;;;;5094675;28;20036;-71
2022/02/08 18:12:19;;;;;;;43.45;20.20;;;204.90;1817.60;;;;;;5094390;28;20016;-70
2022/02/08 18:14:51;;;;;;;41.33;19.80;;;204.80;1868.80;;;;;;5094252;28;20361;-70
2022/02/08 18:17:24;;;;;;;46.05;23.38;;;204.80;1868.80;;;;;;5094400;28;20020;-70
2022/02/08 18:19:59;;;;;;;41.17;20.40;;;180.10;1894.40;;;;;;5094238;28;20024;-70
2022/02/08 19:03:23;;;;;;;40.17;17.17;;;179.90;1894.40;;;;;;5074967;28;20523;-69
2022/02/08 19:09:19;;;;;;;33.97;16.30;;;179.70;1945.60;;;;;;5092648;28;20043;-70
